August 2026

Die Berechnungen basien auf stündlichen Durchschnittswerten.
Temperaturen in °C, Regen in mm, Druck in hPa, Wind in m/s, Sonne in h.
Temperaturmessung aus 2m Höhe, Windmessung aus 20m Höhe.

Tag T_max T_mean T_min Regen p_max p_mean p_min v_max Sonne
01.08.2026 29.1 22.5 16.5 0.3 964.0 962.6 961.4 2.7 6.3
02.08.2026 30.0 23.3 17.1 0.0 963.6 962.0 960.3 2.6 0.0
03.08.2026 34.7 25.2 16.0 1.6 960.9 960.0 958.6 3.1 0.0
04.08.2026 36.0 27.6 17.1 0.5 961.4 959.9 958.2 3.0 0.0
05.08.2026 33.1 26.6 19.1 3.0 965.0 962.8 961.5 4.5 0.0
06.08.2026 23.2 20.9 18.0 2.8 966.2 965.3 964.5 2.3 0.0
07.08.2026 27.0 21.6 14.4 0.0 966.9 965.8 964.5 2.5 0.0
08.08.2026 29.4 22.0 13.2 0.0 966.3 965.0 963.7 2.4 0.0
09.08.2026 33.3 24.5 12.3 0.0 963.9 962.4 960.4 2.7 9.2
10.08.2026 33.3 26.1 18.1 0.0 964.0 962.6 961.2 4.8 0.0
11.08.2026 30.0 24.4 18.5 0.0 968.7 966.7 964.6 2.5 0.0
12.08.2026 29.7 22.3 15.9 0.0 970.2 969.5 968.6 2.5 0.0
13.08.2026 30.2 21.3 11.4 0.0 970.6 969.2 967.5 2.8 0.0
14.08.2026 32.2 21.5 10.2 0.1 967.1 964.6 962.0 2.0 0.0
15.08.2026 34.0 24.4 11.3 0.0 962.1 960.7 958.8 3.1 0.0
16.08.2026 30.7 25.3 19.7 0.0 961.9 960.4 959.7 2.7 0.0
17.08.2026 25.1 19.2 15.9 6.3 961.3 959.9 958.6 5.3 0.0
18.08.2026 19.3 17.5 16.3 6.0 960.9 959.3 958.1 2.1 0.0
19.08.2026 30.6 23.6 16.8 0.2 958.9 955.4 952.0 4.0 0.0
20.08.2026 24.7 20.5 16.8 3.5 957.4 956.4 953.3 2.8 0.0
21.08.2026 21.3 16.7 12.8 28.3 960.1 956.8 952.7 6.1 0.0
22.08.2026 20.6 15.6 11.1 0.1 967.6 964.3 959.9 6.1 0.0
23.08.2026 22.6 15.9 8.7 0.0 968.1 967.3 966.6 2.1 0.0
24.08.2026 24.1 17.6 8.8 0.0 966.6 963.6 957.6 3.0 0.0
25.08.2026 16.1 14.6 13.1 3.0 961.9 959.4 955.4 2.8 0.0
26.08.2026 26.7 20.0 13.8 3.3 963.7 962.3 961.5 1.9 0.0
27.08.2026 30.0 22.3 15.2 0.0 961.2 959.9 957.8 2.2 0.0
28.08.2026 28.1 19.4 14.8 10.5 963.9 959.6 955.7 6.5 0.0
29.08.2026 24.3 18.0 11.5 0.0 964.0 962.6 961.3 3.0 0.0
30.08.2026 26.7 21.1 15.1 0.1 963.2 961.9 960.7 3.0 0.0
31.08.2026 24.8 20.0 15.9 1.5 966.7 963.2 959.9 5.4 0.0

T_max T_mean T_min
Höchste 36.0 27.6 19.7 Sonnenstunden 15.5
Mittlere 27.8 21.3 14.7 Regensumme 71.0
Niedrigste 16.1 14.6 8.7 Monatsmitteltemperatur 21.3

Heiße Tage
(Max>=30)
Sommertage
(Max>=25)
Tropennächte
(Min>=20)
Frosttage
(Min<0)
Eistage
(Max<0)
10 21 0 0 0